Ana Sayfa
METAR-TAF:

METAR-TAF

Havaalanları :

Yaoundé, Kamerun

Enlem: 03-50N, Boylam: 011-31E, yükseklik: 751 m

METAR: eksik

Saat: 15:04 (14:04 UTC)

Tahmin

Rapor saat 11:00 UTC de 3 saat ve 4 dakika önce yapıldı.
Ayın 21'si saat 12 UTC'den ayın 22'si saat 12 UTC'ye kadar geçerli Tahmin
Rüzgar batıdan 7 kt
Görüş mesafesi 10 km veya daha fazla
1600 ft yükseklikte parçalı çok bulutlu
Geçici
ayın 21'si saat 15 UTC'den ayın 21'si saat 22 UTC'ye kadar
1600 ft yükseklikte parçalı çok bulutlu
2300 ft yükseklikte az bulutlu, Kümülonimbus.
gök gürültülü fırtına
Olasılık 40%
ayın 21'si saat 16 UTC'den ayın 21'si saat 20 UTC'ye kadar
Görüş mesafesi: 4000 m
gök gürültülü fırtına, yağmur
Dönüşüyor
ayın 21'si saat 20 UTC'den ayın 21'si saat 22 UTC'ye kadar
600 ft yükseklikte parçalı çok bulutlu

TAF: FKYS 211100Z 2112/2212 26007KT 9999 BKN016 TEMPO 2115/2122 TS BKN016 FEW023CB PROB40 2116/2120 4000 TSRA BECMG 2120/2122 BKN006

4.000'den fazla havaalanı için hava durumu gözlemleri ve tahminleri (METAR ve TAF raporları).

Kullanılabilir istasyonlar harita üzerinde sarı ve kırmızı noktalarla gösterilir.

İstasyonun adını görmek için fareyi noktanın üzerinde gezdirin.

Sonrasında hava gözlem ve tahminlerini görmek için tıklayın.

Haritayı değiştirmek için: yaklaştırmak için siyah artı işaretli yeşil düğmeye ve uzaklaştırmak için de eksi işaretli düğmeye hızla tıklayın; bitişik haritalar için yeşil okları kullanın.


METAR-TAF: